Time;durP1;ratioP1;P1;durP2;ratioP2;P2;SDS_P1;SDS_P2;PMS_P1;PMS_P2;Temp;Humidity;BMP_temperature;BMP_pressure;BME280_temperature;BME280_humidity;BME280_pressure;Samples;Min_cycle;Max_cycle;Signal;HPM_P1;HPM_P2
2022/10/09 00:00:49;;;;;;;4.60;1.80;;;8.30;99.90;;;;;;4790378;30;20199;-92
2022/10/09 00:03:17;;;;;;;5.23;1.80;;;8.30;99.90;;;;;;4789549;30;20183;-91
2022/10/09 00:05:44;;;;;;;6.40;1.63;;;8.30;99.90;;;;;;4789834;29;20211;-92
2022/10/09 00:08:10;;;;;;;5.55;1.85;;;8.30;99.90;;;;;;4788238;30;20176;-90
2022/10/09 00:10:41;;;;;;;6.80;1.60;;;8.20;99.90;;;;;;4788910;30;20192;-92
2022/10/09 00:13:06;;;;;;;6.20;1.70;;;8.20;99.90;;;;;;4788840;29;20710;-90
2022/10/09 00:15:37;;;;;;;4.27;1.60;;;8.10;99.90;;;;;;4791605;30;20254;-91
2022/10/09 00:18:03;;;;;;;5.47;1.50;;;8.10;99.90;;;;;;4792671;29;20242;-91
2022/10/09 00:20:34;;;;;;;6.00;1.70;;;8.10;99.90;;;;;;4791470;30;20175;-90
2022/10/09 00:23:00;;;;;;;7.50;1.60;;;8.10;99.90;;;;;;4774372;30;20168;-91
2022/10/09 00:25:26;;;;;;;5.85;1.80;;;8.20;99.90;;;;;;4773978;30;20689;-91
2022/10/09 00:27:51;;;;;;;4.45;1.90;;;8.10;99.90;;;;;;4786942;30;20215;-91
2022/10/09 00:30:18;;;;;;;7.13;1.57;;;8.20;99.90;;;;;;4793097;30;20184;-90
2022/10/09 00:32:44;;;;;;;2.13;1.20;;;8.20;99.90;;;;;;4792411;30;20270;-91
2022/10/09 00:35:11;;;;;;;4.57;1.30;;;8.20;99.90;;;;;;4793111;29;20743;-91
2022/10/09 00:37:37;;;;;;;7.90;1.60;;;8.10;99.90;;;;;;4792267;30;20207;-90
2022/10/09 00:40:03;;;;;;;4.10;1.33;;;8.20;99.90;;;;;;4792429;30;20188;-90
2022/10/09 00:42:29;;;;;;;4.18;1.45;;;8.10;99.90;;;;;;4791828;30;20187;-91
2022/10/09 00:44:59;;;;;;;6.93;1.37;;;8.10;99.90;;;;;;4792170;29;20301;-90
2022/10/09 00:47:46;;;;;;;8.70;1.60;;;8.10;99.90;;;;;;4793677;29;20175;-90
2022/10/09 00:50:44;;;;;;;5.57;1.50;;;8.10;99.90;;;;;;4792688;29;20211;-90
2022/10/09 00:53:14;;;;;;;4.47;1.20;;;8.10;99.90;;;;;;4792391;29;20234;-89
2022/10/09 00:55:41;;;;;;;6.63;1.53;;;8.10;99.90;;;;;;4792358;29;20279;-90
2022/10/09 00:58:08;;;;;;;3.30;1.27;;;8.10;99.90;;;;;;4791699;29;20203;-90
2022/10/09 01:00:34;;;;;;;5.40;1.63;;;8.10;99.90;;;;;;4792336;29;20176;-90
2022/10/09 01:03:03;;;;;;;4.23;1.57;;;8.10;99.90;;;;;;4792001;29;20179;-88
2022/10/09 01:05:59;;;;;;;5.73;1.33;;;8.00;99.90;;;;;;4791817;30;20219;-90
2022/10/09 01:08:45;;;;;;;6.20;1.40;;;8.00;99.90;;;;;;4792554;30;20209;-90
2022/10/09 01:11:17;;;;;;;4.90;1.17;;;8.00;99.90;;;;;;4791380;30;20569;-89
2022/10/09 01:13:56;;;;;;;6.27;1.47;;;8.00;99.90;;;;;;4791855;30;20188;-89
2022/10/09 01:16:34;;;;;;;5.57;1.30;;;8.00;99.90;;;;;;4791506;29;20219;-90
2022/10/09 01:19:33;;;;;;;2.57;1.27;;;8.00;99.90;;;;;;4790576;29;20329;-92
2022/10/09 01:22:31;;;;;;;3.50;1.40;;;8.00;99.90;;;;;;4792540;30;20301;-91
2022/10/09 01:25:23;;;;;;;4.33;1.50;;;8.00;99.90;;;;;;4789838;29;20214;-91
2022/10/09 01:27:49;;;;;;;8.23;1.83;;;7.90;99.90;;;;;;4791103;30;20221;-90
2022/10/09 01:30:15;;;;;;;5.37;1.47;;;7.90;99.90;;;;;;4790666;30;20227;-89
2022/10/09 01:32:47;;;;;;;5.63;1.50;;;7.90;99.90;;;;;;4805451;29;20222;-90
2022/10/09 01:35:14;;;;;;;3.33;1.20;;;7.90;99.90;;;;;;4790701;29;20307;-92
2022/10/09 01:37:44;;;;;;;4.87;1.70;;;7.90;99.90;;;;;;4790751;30;20268;-90
2022/10/09 01:40:13;;;;;;;4.83;1.10;;;7.90;99.90;;;;;;4790666;30;20176;-92
2022/10/09 01:42:41;;;;;;;5.87;1.57;;;7.90;99.90;;;;;;4790350;30;20213;-89
2022/10/09 01:45:08;;;;;;;4.43;1.20;;;7.80;99.90;;;;;;5216233;24;20246;-90
2022/10/09 01:47:33;;;;;;;4.93;1.53;;;7.80;99.90;;;;;;4823854;29;20194;-90
2022/10/09 01:50:24;;;;;;;6.17;1.40;;;7.80;99.90;;;;;;4808566;29;20195;-90
2022/10/09 01:52:57;;;;;;;3.77;1.33;;;7.80;99.90;;;;;;4807292;29;20622;-89
2022/10/09 01:55:41;;;;;;;4.87;1.30;;;7.80;99.90;;;;;;4807330;29;20251;-89
2022/10/09 01:58:36;;;;;;;4.10;1.30;;;7.80;99.90;;;;;;4807173;29;20229;-90
2022/10/09 02:01:01;;;;;;;2.57;1.00;;;7.80;99.90;;;;;;4807024;29;20273;-89
2022/10/09 02:03:29;;;;;;;2.60;1.07;;;7.80;99.90;;;;;;4825037;29;20284;-89
2022/10/09 02:05:56;;;;;;;3.70;1.47;;;7.80;99.90;;;;;;4823107;29;20186;-90
2022/10/09 02:08:23;;;;;;;2.50;1.27;;;7.70;99.90;;;;;;4824865;29;20253;-89
2022/10/09 02:10:55;;;;;;;4.00;1.07;;;7.60;99.90;;;;;;4826328;29;20664;-89
2022/10/09 02:13:21;;;;;;;4.80;1.20;;;7.60;99.90;;;;;;4825497;29;20624;-90
2022/10/09 02:16:20;;;;;;;2.53;1.10;;;7.60;99.90;;;;;;4824656;29;20186;-88
2022/10/09 02:18:55;;;;;;;3.37;1.60;;;7.70;99.90;;;;;;4824828;29;20737;-89
2022/10/09 02:21:27;;;;;;;2.70;1.03;;;7.60;99.90;;;;;;4807218;29;20194;-89
2022/10/09 02:23:56;;;;;;;3.97;1.40;;;7.50;99.90;;;;;;4806898;29;20190;-89
2022/10/09 02:26:23;;;;;;;4.73;1.33;;;7.50;99.90;;;;;;4806587;29;20198;-90
2022/10/09 02:28:50;;;;;;;2.53;1.30;;;7.50;99.90;;;;;;4806576;29;20193;-89
2022/10/09 02:31:28;;;;;;;4.37;1.10;;;7.50;99.90;;;;;;4807920;29;20273;-89
2022/10/09 02:33:58;;;;;;;2.80;1.10;;;7.40;99.90;;;;;;4824865;29;20196;-90
2022/10/09 02:36:25;;;;;;;3.23;1.30;;;7.40;99.90;;;;;;4824138;29;20190;-90
2022/10/09 02:38:51;;;;;;;2.13;1.20;;;7.40;99.90;;;;;;4825103;29;20256;-89
2022/10/09 02:41:16;;;;;;;3.47;1.20;;;7.40;99.90;;;;;;4824955;29;20194;-89
2022/10/09 02:43:42;;;;;;;3.23;1.27;;;7.30;99.90;;;;;;4825943;29;20209;-90
2022/10/09 02:46:08;;;;;;;1.93;1.00;;;7.20;99.90;;;;;;4824393;29;20249;-89
2022/10/09 02:48:33;;;;;;;3.43;1.20;;;7.30;99.90;;;;;;4824744;29;20198;-89
2022/10/09 02:51:00;;;;;;;3.73;1.23;;;7.20;99.90;;;;;;4824753;29;20186;-89
2022/10/09 02:53:26;;;;;;;3.77;1.40;;;7.10;99.90;;;;;;4839814;29;20232;-89
2022/10/09 02:55:52;;;;;;;3.63;1.33;;;7.10;99.90;;;;;;4840947;29;20185;-89
2022/10/09 02:58:18;;;;;;;10.00;1.43;;;7.10;99.90;;;;;;4824346;29;20213;-89
2022/10/09 03:00:48;;;;;;;7.60;1.93;;;7.10;99.90;;;;;;4824357;29;20185;-89
2022/10/09 03:03:14;;;;;;;5.57;1.20;;;7.10;99.90;;;;;;4823723;29;20740;-90
2022/10/09 03:05:39;;;;;;;1.87;1.00;;;7.10;99.90;;;;;;4831795;29;20178;-89
2022/10/09 03:08:05;;;;;;;4.90;1.20;;;7.10;99.90;;;;;;4823605;29;20614;-89
2022/10/09 03:10:31;;;;;;;2.93;1.20;;;7.20;99.90;;;;;;4824406;29;20188;-89
2022/10/09 03:12:57;;;;;;;3.27;1.13;;;7.10;99.90;;;;;;4824046;29;20625;-88
2022/10/09 03:15:23;;;;;;;6.30;1.60;;;7.10;99.90;;;;;;4824158;29;20531;-89
2022/10/09 03:17:49;;;;;;;4.00;1.60;;;7.10;99.90;;;;;;4824236;29;20303;-89
2022/10/09 03:20:14;;;;;;;4.87;1.33;;;7.10;99.90;;;;;;4824398;29;20182;-89
2022/10/09 03:22:40;;;;;;;5.40;1.40;;;7.10;99.90;;;;;;4824222;29;20703;-89
2022/10/09 03:25:06;;;;;;;2.53;1.10;;;7.10;99.90;;;;;;4824209;29;20201;-89
2022/10/09 03:27:32;;;;;;;3.97;1.40;;;7.10;99.90;;;;;;4824067;29;20182;-89
2022/10/09 03:29:58;;;;;;;2.27;1.30;;;7.00;99.90;;;;;;4825498;29;20189;-90
2022/10/09 03:32:24;;;;;;;3.20;1.40;;;6.90;99.90;;;;;;4824083;29;20660;-90
2022/10/09 03:34:50;;;;;;;5.13;1.43;;;6.90;99.90;;;;;;4825161;29;20189;-90
2022/10/09 03:37:17;;;;;;;2.57;1.37;;;6.90;99.90;;;;;;4824061;29;20185;-89
2022/10/09 03:39:42;;;;;;;3.90;1.30;;;6.90;99.90;;;;;;4823808;29;20621;-89
2022/10/09 03:42:08;;;;;;;3.90;1.30;;;7.00;99.90;;;;;;4825227;29;20183;-89
2022/10/09 03:44:34;;;;;;;3.77;1.20;;;7.00;99.90;;;;;;4823807;29;20186;-90
2022/10/09 03:46:59;;;;;;;4.43;1.40;;;6.90;99.90;;;;;;4826976;29;20182;-89
2022/10/09 03:49:25;;;;;;;4.03;1.50;;;7.00;99.90;;;;;;4829527;29;20181;-89
2022/10/09 03:51:51;;;;;;;3.20;1.20;;;7.00;99.90;;;;;;4830465;29;20225;-89
2022/10/09 03:54:16;;;;;;;4.23;1.40;;;6.90;99.90;;;;;;4846665;29;20174;-89
2022/10/09 03:56:42;;;;;;;3.10;1.30;;;6.90;99.90;;;;;;4830404;29;20191;-90
2022/10/09 03:59:09;;;;;;;7.93;1.80;;;6.90;99.90;;;;;;4830568;29;20686;-90
2022/10/09 04:01:35;;;;;;;2.77;1.30;;;6.90;99.90;;;;;;4830342;29;20213;-89
2022/10/09 04:04:01;;;;;;;5.47;1.70;;;6.90;99.90;;;;;;4830481;29;20228;-90
2022/10/09 04:06:26;;;;;;;5.80;1.40;;;6.80;99.90;;;;;;4830098;29;20305;-90
2022/10/09 04:08:52;;;;;;;4.93;1.13;;;6.80;99.90;;;;;;4829850;29;20675;-89
2022/10/09 04:11:18;;;;;;;2.90;1.30;;;6.80;99.90;;;;;;4846443;29;20609;-88
2022/10/09 04:13:44;;;;;;;5.20;1.53;;;6.80;99.90;;;;;;4829994;29;20617;-88
2022/10/09 04:16:11;;;;;;;2.60;1.20;;;6.80;99.90;;;;;;4846500;29;20261;-89
2022/10/09 04:18:42;;;;;;;8.43;1.50;;;6.70;99.90;;;;;;4830069;29;20217;-90
2022/10/09 04:21:08;;;;;;;6.70;1.93;;;6.70;99.90;;;;;;4830080;29;20182;-90
2022/10/09 04:23:34;;;;;;;4.13;1.33;;;6.70;99.90;;;;;;4845926;29;20182;-90
2022/10/09 04:26:00;;;;;;;3.80;1.40;;;6.70;99.90;;;;;;4829759;29;20188;-89
2022/10/09 04:28:27;;;;;;;5.77;1.60;;;6.70;99.90;;;;;;4828463;29;20193;-89
2022/10/09 04:30:53;;;;;;;8.00;1.40;;;6.70;99.90;;;;;;4829446;29;20190;-89
2022/10/09 04:33:19;;;;;;;4.93;1.53;;;6.70;99.90;;;;;;4829786;29;20621;-89
2022/10/09 04:35:48;;;;;;;1.87;1.20;;;6.70;99.90;;;;;;4845710;29;20193;-89
2022/10/09 04:38:14;;;;;;;2.27;1.20;;;6.70;99.90;;;;;;4829480;29;20657;-90
2022/10/09 04:40:40;;;;;;;5.43;1.40;;;6.70;99.90;;;;;;4829809;29;20193;-89
2022/10/09 04:43:06;;;;;;;2.20;1.17;;;6.60;99.90;;;;;;4829245;29;20568;-89
2022/10/09 04:45:31;;;;;;;5.00;1.27;;;6.70;99.90;;;;;;4832537;29;20241;-89
2022/10/09 04:47:57;;;;;;;6.13;1.50;;;6.60;99.90;;;;;;4828883;29;20197;-89
2022/10/09 04:50:23;;;;;;;4.07;1.47;;;6.60;99.90;;;;;;4829654;29;20274;-88
2022/10/09 04:52:49;;;;;;;3.73;1.47;;;6.60;99.90;;;;;;4845796;29;20189;-89
2022/10/09 04:55:14;;;;;;;2.17;1.20;;;6.60;99.90;;;;;;4845647;29;20241;-89
2022/10/09 04:57:40;;;;;;;2.73;1.40;;;6.60;99.90;;;;;;4828743;29;20571;-89
2022/10/09 05:00:06;;;;;;;4.67;1.73;;;6.60;99.90;;;;;;4828587;29;20609;-89
2022/10/09 05:02:32;;;;;;;4.03;1.60;;;6.60;99.90;;;;;;4829112;29;20220;-89
2022/10/09 05:04:58;;;;;;;8.53;1.30;;;6.50;99.90;;;;;;4845000;29;20212;-89
2022/10/09 05:07:23;;;;;;;6.63;1.63;;;6.50;99.90;;;;;;4828596;29;20595;-89
2022/10/09 05:09:49;;;;;;;9.80;1.90;;;6.50;99.90;;;;;;4828448;29;20668;-89
2022/10/09 05:12:15;;;;;;;5.00;1.40;;;6.50;99.90;;;;;;4828883;29;20633;-88
2022/10/09 05:14:40;;;;;;;2.83;1.50;;;6.50;99.90;;;;;;4845312;29;20182;-89
2022/10/09 05:17:06;;;;;;;8.83;1.40;;;6.50;99.90;;;;;;4829105;29;20216;-89
2022/10/09 05:19:32;;;;;;;5.60;1.33;;;6.50;99.90;;;;;;4829188;29;20544;-89
2022/10/09 05:22:01;;;;;;;2.87;1.47;;;6.40;99.90;;;;;;4829062;29;20188;-89
2022/10/09 05:24:27;;;;;;;5.80;1.40;;;6.40;99.90;;;;;;4827784;29;20185;-89
2022/10/09 05:26:53;;;;;;;3.43;1.43;;;6.40;99.90;;;;;;4829057;29;20193;-89
2022/10/09 05:29:19;;;;;;;4.50;1.43;;;6.40;99.90;;;;;;4824755;29;20185;-89
2022/10/09 05:31:45;;;;;;;4.67;1.70;;;6.40;99.90;;;;;;4825777;29;20281;-88
2022/10/09 05:34:11;;;;;;;5.27;1.43;;;6.30;99.90;;;;;;4836302;29;20201;-89
2022/10/09 05:36:36;;;;;;;5.83;1.67;;;6.40;99.90;;;;;;4843816;29;20189;-89
2022/10/09 05:39:03;;;;;;;4.70;1.43;;;6.40;99.90;;;;;;4834371;29;20220;-89
2022/10/09 05:41:28;;;;;;;3.73;1.20;;;6.40;99.90;;;;;;4828788;29;20273;-89
2022/10/09 05:43:59;;;;;;;4.00;1.57;;;6.40;99.90;;;;;;4828655;29;20238;-89
2022/10/09 05:46:25;;;;;;;3.77;1.47;;;6.40;99.90;;;;;;4828370;29;20737;-88
2022/10/09 05:48:56;;;;;;;4.90;2.07;;;6.40;99.90;;;;;;4827795;29;20581;-88
2022/10/09 05:51:29;;;;;;;4.67;1.77;;;6.50;99.90;;;;;;4828534;29;20177;-89
2022/10/09 05:53:56;;;;;;;8.33;1.63;;;6.50;99.90;;;;;;4828215;29;20221;-89
2022/10/09 05:56:31;;;;;;;4.10;1.30;;;6.50;99.90;;;;;;4828365;29;20596;-89
2022/10/09 05:58:59;;;;;;;2.60;1.20;;;6.50;99.90;;;;;;4828507;29;20365;-89
2022/10/09 06:01:27;;;;;;;5.20;1.40;;;6.50;99.90;;;;;;4843835;29;20173;-89
2022/10/09 06:03:55;;;;;;;5.17;1.40;;;6.50;99.90;;;;;;4826206;29;20276;-88
2022/10/09 06:06:22;;;;;;;2.67;1.47;;;6.50;99.90;;;;;;4844078;29;20625;-89
2022/10/09 06:08:49;;;;;;;5.70;1.17;;;6.50;99.90;;;;;;4828108;29;20192;-88
2022/10/09 06:11:17;;;;;;;2.20;1.23;;;6.50;99.90;;;;;;4827922;29;20264;-89
2022/10/09 06:13:43;;;;;;;5.53;1.20;;;6.60;99.90;;;;;;4828068;29;20177;-88
2022/10/09 06:16:11;;;;;;;5.07;1.37;;;6.60;99.90;;;;;;4827670;29;20216;-88
2022/10/09 06:18:38;;;;;;;4.43;1.30;;;6.70;99.90;;;;;;4827654;29;20312;-88
2022/10/09 06:21:04;;;;;;;7.70;1.63;;;6.70;99.90;;;;;;4827722;29;20185;-88
2022/10/09 06:23:30;;;;;;;6.73;1.80;;;6.70;99.90;;;;;;4841046;29;20189;-88
2022/10/09 06:26:10;;;;;;;2.13;1.40;;;6.70;99.90;;;;;;4843143;29;20227;-88
2022/10/09 06:28:36;;;;;;;3.83;1.40;;;6.70;99.90;;;;;;4843703;29;20189;-88
2022/10/09 06:31:13;;;;;;;4.07;1.23;;;6.80;99.90;;;;;;4842638;29;20242;-88
2022/10/09 06:33:40;;;;;;;7.63;1.60;;;6.80;99.90;;;;;;4831993;29;20196;-89
2022/10/09 06:36:09;;;;;;;9.97;1.57;;;6.80;99.90;;;;;;4827736;29;20633;-89
2022/10/09 06:38:35;;;;;;;9.23;1.63;;;6.80;99.90;;;;;;4827550;29;20216;-87
2022/10/09 06:41:06;;;;;;;6.57;1.60;;;6.80;99.90;;;;;;4827937;29;20685;-86
2022/10/09 06:43:32;;;;;;;4.63;1.80;;;6.90;99.90;;;;;;4827584;29;20196;-87
2022/10/09 06:46:03;;;;;;;3.60;1.23;;;7.00;99.90;;;;;;4827307;29;20232;-87
2022/10/09 06:48:30;;;;;;;5.07;1.80;;;7.00;99.90;;;;;;4827445;29;20181;-87
2022/10/09 06:51:01;;;;;;;6.13;1.30;;;7.00;99.90;;;;;;4827622;29;20195;-87
2022/10/09 06:53:27;;;;;;;3.27;1.37;;;7.10;99.90;;;;;;4827437;29;20189;-86
2022/10/09 06:55:54;;;;;;;4.03;1.50;;;7.20;99.90;;;;;;4826171;29;20249;-87
2022/10/09 06:58:20;;;;;;;4.23;1.50;;;7.20;99.90;;;;;;4844081;29;20786;-86
2022/10/09 07:00:46;;;;;;;4.10;1.60;;;7.30;99.90;;;;;;4827850;29;20527;-87
2022/10/09 07:03:12;;;;;;;7.60;1.60;;;7.40;99.90;;;;;;4827539;29;20197;-87
2022/10/09 07:05:38;;;;;;;9.20;1.60;;;7.50;99.90;;;;;;4835358;29;20647;-85
2022/10/09 07:08:05;;;;;;;5.33;1.80;;;7.60;99.90;;;;;;4843768;29;20178;-85
2022/10/09 07:10:31;;;;;;;4.10;1.20;;;7.60;99.90;;;;;;4837926;29;20272;-86
2022/10/09 07:12:57;;;;;;;3.80;1.57;;;7.80;99.90;;;;;;4827605;29;20181;-87
2022/10/09 07:15:22;;;;;;;8.33;1.70;;;7.80;99.90;;;;;;4843862;29;20181;-88
2022/10/09 07:17:50;;;;;;;4.60;1.60;;;7.90;99.90;;;;;;4827782;29;20232;-87
2022/10/09 07:20:16;;;;;;;6.27;1.57;;;8.00;99.90;;;;;;4827790;29;20193;-87
2022/10/09 07:22:41;;;;;;;5.57;1.70;;;8.10;99.90;;;;;;4837326;29;20196;-88
2022/10/09 07:25:09;;;;;;;6.87;1.80;;;8.10;99.90;;;;;;4842679;29;20181;-90
2022/10/09 07:27:35;;;;;;;13.27;1.97;;;8.20;99.90;;;;;;4827707;29;20189;-87
2022/10/09 07:30:04;;;;;;;4.20;1.60;;;8.30;99.90;;;;;;4827977;29;20279;-89
2022/10/09 07:32:30;;;;;;;6.30;1.73;;;8.40;99.90;;;;;;4828041;29;20174;-88
2022/10/09 07:48:43;;;;;;;6.67;2.20;;;8.90;99.90;;;;;;2543192;29;22935;-87
2022/10/09 07:51:09;;;;;;;11.35;2.40;;;9.00;99.90;;;;;;4841064;29;20200;-86
2022/10/09 07:53:36;;;;;;;9.32;2.15;;;9.10;99.90;;;;;;4839186;29;20181;-88
2022/10/09 07:56:03;;;;;;;7.53;2.43;;;9.20;99.90;;;;;;4827087;29;20225;-90
2022/10/09 07:58:31;;;;;;;7.60;2.40;;;9.30;99.90;;;;;;4827634;29;20213;-89
2022/10/09 08:01:03;;;;;;;6.32;2.40;;;9.30;99.90;;;;;;4827461;29;20217;-90
2022/10/09 08:03:28;;;;;;;13.25;2.88;;;9.40;99.90;;;;;;4827460;29;20197;-89
2022/10/09 08:05:55;;;;;;;12.90;2.63;;;9.50;99.90;;;;;;4833925;29;20245;-88
2022/10/09 08:08:21;;;;;;;14.18;3.13;;;9.60;99.90;;;;;;4842308;29;20193;-88
2022/10/09 08:10:47;;;;;;;10.07;2.42;;;9.70;99.90;;;;;;4842273;29;20196;-89
2022/10/09 08:13:12;;;;;;;7.55;2.10;;;9.80;99.90;;;;;;4842257;29;20210;-93
2022/10/09 08:15:42;;;;;;;8.27;2.33;;;9.80;99.90;;;;;;4842609;29;20194;-89
2022/10/09 08:18:09;;;;;;;8.68;1.98;;;9.90;99.90;;;;;;4845379;29;21007;-89
2022/10/09 08:20:35;;;;;;;8.32;2.42;;;9.90;99.90;;;;;;4845684;29;20192;-88
2022/10/09 08:23:01;;;;;;;10.45;2.55;;;10.00;99.90;;;;;;4846297;29;20266;-90
2022/10/09 08:25:27;;;;;;;11.30;2.67;;;10.10;99.90;;;;;;4841587;29;20201;-90
2022/10/09 08:27:53;;;;;;;9.18;2.90;;;10.20;99.90;;;;;;4843904;29;20170;-91
2022/10/09 08:30:25;;;;;;;8.02;2.72;;;10.20;99.90;;;;;;4826853;29;20186;-91
2022/10/09 08:32:50;;;;;;;6.55;2.72;;;10.20;99.90;;;;;;4827631;29;20651;-93
2022/10/09 08:35:16;;;;;;;11.45;3.30;;;10.30;99.90;;;;;;4829606;29;20182;-91
2022/10/09 08:37:42;;;;;;;9.63;2.90;;;10.40;99.90;;;;;;4830597;29;20304;-91
2022/10/09 08:40:15;;;;;;;7.43;2.58;;;10.50;99.90;;;;;;4830558;29;20185;-94
2022/10/09 08:43:13;;;;;;;9.73;3.08;;;10.50;99.90;;;;;;4830545;29;20185;-90
2022/10/09 08:45:41;;;;;;;7.90;2.53;;;10.60;99.90;;;;;;4830647;29;20194;-88
2022/10/09 08:48:15;;;;;;;11.65;3.20;;;10.70;99.90;;;;;;4830590;29;20213;-92
2022/10/09 08:50:46;;;;;;;10.50;3.15;;;10.70;99.90;;;;;;4846031;29;20229;-93
2022/10/09 08:53:35;;;;;;;11.52;2.92;;;10.80;99.90;;;;;;4830541;29;20189;-91
2022/10/09 08:56:04;;;;;;;9.05;2.22;;;10.80;99.90;;;;;;4830026;29;20205;-90
2022/10/09 08:58:33;;;;;;;5.13;2.22;;;10.90;99.90;;;;;;4829911;29;20217;-93
2022/10/09 09:01:06;;;;;;;14.73;2.97;;;10.90;99.90;;;;;;4830035;29;20276;-94
2022/10/09 09:03:38;;;;;;;9.40;2.50;;;11.00;99.90;;;;;;4844249;29;20185;-92
2022/10/09 09:06:28;;;;;;;6.30;2.45;;;11.10;99.90;;;;;;4845221;29;20196;-91
2022/10/09 09:09:36;;;;;;;9.93;2.60;;;11.10;99.90;;;;;;4846351;29;20181;-91
2022/10/09 09:12:44;;;;;;;11.88;2.17;;;11.20;99.90;;;;;;4829650;29;20177;-92
2022/10/09 09:15:22;;;;;;;10.63;2.50;;;11.30;99.90;;;;;;4845640;29;20204;-89
2022/10/09 09:18:13;;;;;;;8.73;1.85;;;11.30;99.90;;;;;;4844830;29;20558;-88
2022/10/09 09:20:52;;;;;;;7.15;2.13;;;11.40;99.90;;;;;;4842072;29;20197;-87
2022/10/09 09:23:28;;;;;;;5.95;1.40;;;11.50;99.90;;;;;;4829663;29;20264;-94
2022/10/09 09:25:55;;;;;;;12.68;2.17;;;11.60;99.90;;;;;;4829375;29;20272;-89
2022/10/09 09:28:28;;;;;;;12.85;1.90;;;11.60;99.90;;;;;;4829892;29;20181;-90
2022/10/09 09:31:01;;;;;;;6.13;1.88;;;11.80;99.90;;;;;;4829534;29;20280;-89
2022/10/09 09:33:54;;;;;;;7.93;1.45;;;11.90;99.90;;;;;;4829651;29;20181;-88
2022/10/09 09:36:25;;;;;;;6.43;1.90;;;12.00;99.90;;;;;;4829628;29;20181;-90
2022/10/09 09:38:52;;;;;;;7.80;1.73;;;12.10;99.90;;;;;;4829515;29;20217;-90
2022/10/09 09:41:18;;;;;;;5.85;1.33;;;12.20;99.90;;;;;;4829184;29;20229;-91
2022/10/09 09:43:44;;;;;;;11.25;1.85;;;12.20;99.90;;;;;;4845738;29;20717;-92
2022/10/09 09:46:18;;;;;;;11.07;2.42;;;12.30;99.90;;;;;;4828640;29;20200;-89
2022/10/09 09:48:47;;;;;;;4.70;1.65;;;12.40;99.90;;;;;;4829088;29;20188;-93
2022/10/09 09:51:34;;;;;;;7.32;1.50;;;12.50;99.90;;;;;;4829242;29;20197;-89
2022/10/09 09:54:05;;;;;;;8.02;1.80;;;12.40;99.90;;;;;;4845705;29;20199;-89
2022/10/09 09:56:39;;;;;;;10.27;1.88;;;12.40;99.90;;;;;;4845558;29;20761;-86
2022/10/09 09:59:06;;;;;;;10.43;1.75;;;12.50;99.90;;;;;;4829197;29;20696;-87
2022/10/09 10:01:33;;;;;;;6.97;1.58;;;12.60;99.90;;;;;;4844544;29;20298;-89
2022/10/09 10:04:03;;;;;;;8.23;1.48;;;12.70;99.90;;;;;;4844778;29;20224;-92
2022/10/09 10:06:40;;;;;;;6.88;1.75;;;12.80;99.90;;;;;;4845571;29;20688;-91
2022/10/09 10:09:15;;;;;;;9.63;1.63;;;12.80;99.90;;;;;;4829466;29;20196;-91
2022/10/09 10:11:57;;;;;;;9.32;1.73;;;12.90;99.90;;;;;;4844822;29;20169;-92
2022/10/09 10:14:24;;;;;;;9.35;1.70;;;13.00;99.90;;;;;;4844201;29;20272;-94
2022/10/09 10:16:52;;;;;;;11.30;2.10;;;13.00;99.90;;;;;;4844534;29;20181;-96
2022/10/09 10:19:23;;;;;;;9.65;1.42;;;13.00;99.90;;;;;;4844800;29;20229;-95
2022/10/09 10:22:06;;;;;;;6.07;1.58;;;12.90;99.90;;;;;;4845370;29;20237;-94
2022/10/09 10:24:40;;;;;;;11.52;1.80;;;13.10;99.90;;;;;;4843905;29;20209;-94
2022/10/09 10:27:36;;;;;;;8.18;1.70;;;13.10;99.90;;;;;;4844903;29;20621;-95
2022/10/09 10:30:05;;;;;;;6.05;1.20;;;13.20;99.90;;;;;;4838012;29;20197;-93
2022/10/09 10:32:56;;;;;;;9.95;1.63;;;13.30;99.90;;;;;;4844997;29;20195;-94
2022/10/09 10:35:34;;;;;;;9.48;2.20;;;13.30;99.90;;;;;;4829997;29;20624;-91
2022/10/09 10:38:28;;;;;;;7.93;1.50;;;13.30;99.90;;;;;;4845428;29;20215;-96
2022/10/09 10:41:18;;;;;;;9.00;1.40;;;13.10;99.90;;;;;;4843804;29;20188;-93
2022/10/09 10:43:58;;;;;;;13.48;1.40;;;13.00;99.90;;;;;;4830137;29;20521;-95
2022/10/09 10:46:33;;;;;;;6.15;1.55;;;13.10;99.90;;;;;;4846133;29;20601;-93
2022/10/09 10:48:59;;;;;;;5.10;1.10;;;13.20;99.90;;;;;;4828169;29;20311;-92
2022/10/09 10:51:37;;;;;;;6.35;1.30;;;13.20;99.90;;;;;;4844285;29;20261;-96
2022/10/09 10:54:15;;;;;;;5.35;0.98;;;13.30;99.90;;;;;;4828646;29;20208;-95
2022/10/09 10:56:52;;;;;;;4.63;0.80;;;13.30;99.90;;;;;;4829501;29;20641;-92
2022/10/09 10:59:29;;;;;;;8.10;1.08;;;13.60;99.90;;;;;;4828259;29;20221;-94
2022/10/09 11:02:19;;;;;;;9.80;1.50;;;13.70;99.90;;;;;;4843649;29;20182;-95
2022/10/09 11:05:21;;;;;;;4.07;0.82;;;13.90;99.90;;;;;;4844815;29;20173;-91
2022/10/09 11:07:54;;;;;;;5.80;1.10;;;14.10;99.90;;;;;;4834735;29;20199;-96
2022/10/09 11:10:39;;;;;;;5.60;1.92;;;14.20;99.90;;;;;;4832887;29;20193;-94
2022/10/09 11:13:20;;;;;;;7.22;0.98;;;14.20;99.90;;;;;;4848214;29;20196;-92
2022/10/09 11:16:12;;;;;;;8.18;1.27;;;14.40;99.90;;;;;;4865308;29;20184;-94
2022/10/09 11:18:52;;;;;;;7.10;1.02;;;14.40;99.90;;;;;;4821282;29;20224;-95
2022/10/09 11:21:32;;;;;;;7.78;1.40;;;14.40;99.90;;;;;;4836360;29;20193;-96
2022/10/09 11:24:20;;;;;;;9.60;1.38;;;14.40;99.90;;;;;;4829865;29;20419;-94
2022/10/09 11:27:00;;;;;;;6.20;1.20;;;14.50;99.90;;;;;;4829797;29;20192;-96
2022/10/09 11:29:36;;;;;;;3.65;0.90;;;14.60;99.90;;;;;;4828368;29;20256;-96
2022/10/09 11:32:15;;;;;;;4.55;1.13;;;14.70;99.90;;;;;;4843081;29;20271;-94
2022/10/09 11:34:47;;;;;;;5.88;1.17;;;14.80;99.90;;;;;;4843450;29;20221;-91
2022/10/09 11:37:22;;;;;;;4.88;1.02;;;14.90;99.90;;;;;;4843159;29;20170;-90
2022/10/09 11:39:48;;;;;;;7.22;1.02;;;15.00;99.90;;;;;;4845560;29;20200;-96
2022/10/09 11:42:18;;;;;;;8.10;1.10;;;15.10;99.90;;;;;;4848012;29;20196;-95
2022/10/09 11:44:59;;;;;;;2.45;0.90;;;15.10;99.90;;;;;;4845076;29;20500;-96
2022/10/09 11:47:40;;;;;;;7.28;1.02;;;15.10;99.90;;;;;;4846194;29;20184;-96
2022/10/09 11:50:28;;;;;;;3.10;0.55;;;15.20;99.90;;;;;;4844011;29;20236;-95
2022/10/09 11:53:02;;;;;;;9.25;1.10;;;15.30;99.90;;;;;;4828522;29;20181;-96
2022/10/09 11:55:30;;;;;;;5.20;1.52;;;15.30;99.90;;;;;;4813155;29;20182;-92
2022/10/09 11:58:21;;;;;;;4.95;0.80;;;15.50;99.90;;;;;;4827370;29;20198;-93
2022/10/09 12:00:55;;;;;;;4.18;0.77;;;15.50;99.90;;;;;;4829553;29;20587;-96
2022/10/09 12:03:34;;;;;;;2.75;0.70;;;15.50;99.90;;;;;;4833525;29;20192;-95
2022/10/09 12:06:13;;;;;;;5.15;0.77;;;15.70;99.90;;;;;;4829360;29;20181;-95
2022/10/09 12:08:42;;;;;;;3.30;0.55;;;15.70;99.90;;;;;;4845085;29;20181;-93
2022/10/09 12:11:16;;;;;;;2.08;0.50;;;15.70;97.90;;;;;;4833350;29;20200;-95
2022/10/09 12:13:59;;;;;;;3.65;0.90;;;15.70;99.90;;;;;;4852166;29;20203;-96
2022/10/09 12:16:44;;;;;;;2.25;0.60;;;15.90;99.60;;;;;;4834543;29;20256;-96
2022/10/09 12:19:39;;;;;;;2.28;0.60;;;16.20;98.40;;;;;;4841251;24;20249;-96
2022/10/09 12:22:19;;;;;;;2.85;0.70;;;16.20;97.50;;;;;;4834296;29;20178;-96
2022/10/09 12:24:51;;;;;;;4.07;0.60;;;16.30;96.90;;;;;;4835611;29;20200;-95
2022/10/09 12:27:32;;;;;;;6.38;1.05;;;16.40;98.50;;;;;;4840849;29;20166;-96
2022/10/09 12:30:11;;;;;;;9.95;0.90;;;16.40;97.60;;;;;;4816773;29;20187;-94
2022/10/09 12:32:46;;;;;;;4.18;0.70;;;16.40;97.60;;;;;;4980150;24;20250;-95
2022/10/09 12:35:21;;;;;;;2.15;0.68;;;16.40;97.70;;;;;;4828713;29;20177;-94
2022/10/09 12:37:46;;;;;;;2.58;0.75;;;16.50;99.20;;;;;;4829367;29;20181;-95
2022/10/09 12:40:22;;;;;;;6.75;0.80;;;16.40;95.90;;;;;;4830055;29;20183;-96
2022/10/09 12:42:51;;;;;;;5.00;1.02;;;16.50;95.40;;;;;;4832817;29;20693;-95
2022/10/09 12:45:30;;;;;;;2.10;0.70;;;16.30;95.10;;;;;;4848963;29;20626;-93
2022/10/09 12:48:09;;;;;;;4.35;0.90;;;16.30;96.00;;;;;;4841019;29;20197;-95
2022/10/09 12:50:35;;;;;;;2.78;0.82;;;16.30;98.90;;;;;;4838759;29;20182;-96
2022/10/09 12:53:11;;;;;;;1.77;0.50;;;16.50;96.80;;;;;;4831558;29;20174;-95
2022/10/09 12:55:44;;;;;;;2.05;0.60;;;16.60;95.90;;;;;;4844296;24;20229;-95
2022/10/09 12:58:21;;;;;;;2.67;0.60;;;16.70;97.30;;;;;;4821813;29;20368;-96
2022/10/09 13:00:50;;;;;;;4.20;0.95;;;16.70;96.70;;;;;;4811451;29;20217;-93
2022/10/09 13:03:41;;;;;;;2.95;1.00;;;16.60;95.10;;;;;;4811695;29;20198;-96
2022/10/09 13:06:19;;;;;;;8.20;0.60;;;16.60;95.60;;;;;;4805575;29;20202;-95
2022/10/09 13:08:58;;;;;;;6.30;0.90;;;16.50;95.80;;;;;;4810417;29;20643;-93
2022/10/09 13:11:51;;;;;;;4.00;0.70;;;16.70;98.80;;;;;;4808692;29;20278;-91
2022/10/09 13:14:50;;;;;;;3.17;0.90;;;16.70;98.50;;;;;;4808497;29;20549;-94
2022/10/09 13:17:33;;;;;;;6.10;0.65;;;17.00;98.70;;;;;;4810100;29;20211;-90
2022/10/09 13:20:03;;;;;;;4.25;0.90;;;16.80;96.00;;;;;;4808512;29;20194;-91
2022/10/09 13:22:37;;;;;;;3.10;0.77;;;16.80;95.90;;;;;;4809446;29;20526;-92
2022/10/09 13:25:04;;;;;;;3.70;1.00;;;16.50;95.80;;;;;;4811031;29;20249;-94
2022/10/09 13:27:33;;;;;;;3.58;0.90;;;16.50;95.70;;;;;;4809068;29;20265;-95
2022/10/09 13:30:00;;;;;;;5.70;0.95;;;16.50;95.40;;;;;;4809347;29;20517;-94